Time;durP1;ratioP1;P1;durP2;ratioP2;P2;SDS_P1;SDS_P2;PMS_P1;PMS_P2;Temp;Humidity;BMP_temperature;BMP_pressure;BME280_temperature;BME280_humidity;BME280_pressure;Samples;Min_cycle;Max_cycle;Signal;HPM_P1;HPM_P2
2021/09/12 00:00:38;;;;;;;;;24.75;22.00;;;;;17.88;63.62;101621.78;4912383;28;45426;-80
2021/09/12 00:03:04;;;;;;;;;23.75;22.00;;;;;17.89;64.01;101626.13;4910717;28;47019;-80
2021/09/12 00:05:30;;;;;;;;;26.50;23.00;;;;;17.90;64.48;101614.41;4922766;28;46157;-79
2021/09/12 00:07:56;;;;;;;;;27.75;22.00;;;;;17.91;63.28;101616.09;4924847;28;45448;-78
2021/09/12 00:10:21;;;;;;;;;24.50;23.50;;;;;17.92;63.27;101610.56;4912981;28;45546;-78
2021/09/12 00:12:46;;;;;;;;;24.75;21.50;;;;;17.94;63.72;101616.56;4911130;28;47082;-70
2021/09/12 00:15:12;;;;;;;;;23.25;21.00;;;;;17.96;63.80;101619.91;4936442;28;45551;-73
2021/09/12 00:17:38;;;;;;;;;22.25;22.00;;;;;17.98;63.19;101609.03;4939507;28;45634;-74
2021/09/12 00:20:05;;;;;;;;;23.25;21.75;;;;;17.99;63.32;101618.72;4923268;28;45618;-71
2021/09/12 00:22:30;;;;;;;;;25.25;22.75;;;;;18.00;63.42;101615.88;4912907;28;47155;-80
2021/09/12 00:24:56;;;;;;;;;20.75;19.50;;;;;18.03;63.63;101614.69;4913600;28;45852;-78
2021/09/12 00:27:21;;;;;;;;;21.00;18.50;;;;;18.05;63.62;101615.31;4929214;28;56883;-78
2021/09/12 00:29:46;;;;;;;;;17.50;16.50;;;;;18.07;63.75;101623.16;4911601;28;45562;-74
2021/09/12 00:32:12;;;;;;;;;22.25;18.50;;;;;18.09;63.64;101616.63;4926338;28;46941;-77
2021/09/12 00:34:37;;;;;;;;;18.75;16.75;;;;;18.12;63.39;101620.78;4912935;28;45426;-77
2021/09/12 00:37:02;;;;;;;;;17.00;13.75;;;;;18.14;63.19;101619.59;4910790;28;45594;-77
2021/09/12 00:39:29;;;;;;;;;16.50;14.50;;;;;18.13;62.36;101612.59;4913109;28;45434;-77
2021/09/12 00:41:55;;;;;;;;;17.50;15.00;;;;;18.15;62.26;101618.63;4909958;28;46355;-77
2021/09/12 00:44:23;;;;;;;;;16.50;13.25;;;;;18.16;63.35;101608.75;4924410;28;45426;-77
2021/09/12 00:46:49;;;;;;;;;15.75;14.25;;;;;18.17;62.60;101607.72;4923844;28;45753;-76
2021/09/12 00:49:15;;;;;;;;;15.25;15.25;;;;;18.17;62.24;101608.53;4921399;28;45748;-77
2021/09/12 00:51:40;;;;;;;;;14.50;12.00;;;;;18.17;61.86;101607.72;4920777;28;48270;-77
2021/09/12 00:54:08;;;;;;;;;12.75;12.00;;;;;18.18;61.59;101612.06;4910752;28;45583;-77
2021/09/12 00:56:41;;;;;;;;;14.00;13.00;;;;;18.19;61.32;101611.06;4925347;28;45782;-77
2021/09/12 00:59:11;;;;;;;;;11.50;11.50;;;;;18.20;61.98;101612.72;4923107;28;45571;-77
2021/09/12 01:01:39;;;;;;;;;11.75;11.75;;;;;18.20;61.97;101613.56;4908377;28;46433;-76
2021/09/12 01:04:05;;;;;;;;;13.00;12.00;;;;;18.20;62.32;101608.22;4912009;28;45497;-76
2021/09/12 01:06:31;;;;;;;;;12.25;10.75;;;;;18.22;61.87;101608.88;4907955;28;45592;-76
2021/09/12 01:08:59;;;;;;;;;12.25;11.00;;;;;18.23;62.01;101602.50;4912759;28;45602;-75
2021/09/12 01:11:24;;;;;;;;;9.25;9.25;;;;;18.24;62.44;101600.66;4906918;28;46888;-76
2021/09/12 01:13:50;;;;;;;;;15.25;10.75;;;;;18.25;61.87;101597.81;4919781;28;45589;-75
2021/09/12 01:16:18;;;;;;;;;12.50;11.75;;;;;18.26;61.65;101607.47;4933963;28;45440;-76
2021/09/12 01:18:46;;;;;;;;;14.75;11.25;;;;;18.29;61.42;101592.91;4929129;28;45579;-76
2021/09/12 01:21:14;;;;;;;;;16.75;13.00;;;;;18.29;61.04;101600.13;4920620;28;46102;-75
2021/09/12 01:23:40;;;;;;;;;13.75;11.50;;;;;18.30;60.69;101597.28;4910310;28;45558;-76
2021/09/12 01:26:06;;;;;;;;;14.50;12.00;;;;;18.31;61.42;101588.22;4912750;28;45531;-76
2021/09/12 01:28:31;;;;;;;;;17.25;15.50;;;;;18.32;61.05;101597.06;4924277;28;45454;-76
2021/09/12 01:30:56;;;;;;;;;17.50;16.50;;;;;18.33;61.40;101593.41;4928571;28;46287;-76
2021/09/12 01:33:22;;;;;;;;;15.75;14.25;;;;;18.33;61.38;101596.09;4921228;28;45515;-76
2021/09/12 01:35:47;;;;;;;;;18.25;16.25;;;;;18.33;61.75;101596.91;4911320;28;45620;-76
2021/09/12 01:38:13;;;;;;;;;23.50;18.50;;;;;18.34;61.59;101593.19;4911186;28;45893;-76
2021/09/12 01:40:38;;;;;;;;;23.25;19.25;;;;;18.36;61.57;101595.72;4915286;28;45484;-76
2021/09/12 01:43:03;;;;;;;;;24.50;20.25;;;;;18.35;62.01;101594.06;4913188;28;45496;-76
2021/09/12 01:45:29;;;;;;;;;18.50;17.50;;;;;18.37;61.68;101590.19;4915085;28;45491;-76
2021/09/12 01:47:59;;;;;;;;;23.25;22.75;;;;;18.38;61.52;101585.66;4912183;28;45519;-75
2021/09/12 01:50:26;;;;;;;;;26.50;21.50;;;;;18.40;60.96;101591.69;4910307;28;50385;-76
2021/09/12 01:52:51;;;;;;;;;29.75;26.75;;;;;18.40;61.07;101586.31;4912040;28;45578;-76
2021/09/12 01:55:17;;;;;;;;;24.50;22.25;;;;;18.40;61.45;101583.66;4910719;28;54779;-76
2021/09/12 01:57:42;;;;;;;;;26.00;23.50;;;;;18.39;61.78;101588.16;4912698;28;45599;-76
2021/09/12 02:00:08;;;;;;;;;20.50;19.75;;;;;18.38;61.57;101580.31;4912632;28;46624;-76
2021/09/12 02:02:34;;;;;;;;;25.25;21.75;;;;;18.36;61.71;101579.66;4925099;28;45522;-76
2021/09/12 02:05:00;;;;;;;;;25.00;21.50;;;;;18.37;61.79;101583.97;4914740;28;45780;-75
2021/09/12 02:07:25;;;;;;;;;20.50;20.25;;;;;18.37;61.81;101586.66;4913772;28;45650;-76
2021/09/12 02:09:50;;;;;;;;;17.25;16.75;;;;;18.38;61.72;101591.84;4912629;28;46027;-76
2021/09/12 02:12:16;;;;;;;;;19.25;18.00;;;;;18.39;61.57;101581.97;4910201;28;50766;-76
2021/09/12 02:14:41;;;;;;;;;15.50;15.50;;;;;18.40;61.30;101583.66;4918030;28;45458;-76
2021/09/12 02:17:06;;;;;;;;;15.00;14.50;;;;;18.40;61.12;101587.16;4939743;28;45496;-76
2021/09/12 02:19:32;;;;;;;;;17.50;17.50;;;;;18.39;61.01;101590.81;4924793;28;46160;-76
2021/09/12 02:21:57;;;;;;;;;17.50;16.00;;;;;18.38;61.39;101589.16;4916456;28;45525;-76
2021/09/12 02:24:23;;;;;;;;;23.75;21.50;;;;;18.37;61.56;101592.88;4912926;28;45996;-76
2021/09/12 02:26:48;;;;;;;;;20.25;18.00;;;;;18.37;60.68;101592.00;4912563;28;45725;-76
2021/09/12 02:29:13;;;;;;;;;22.50;18.50;;;;;18.37;60.53;101602.72;4925508;28;45738;-76
2021/09/12 02:31:39;;;;;;;;;23.75;18.50;;;;;18.37;60.71;101600.03;4929818;28;45522;-76
2021/09/12 02:34:04;;;;;;;;;18.50;18.50;;;;;18.38;60.82;101604.41;4915877;28;45505;-75
2021/09/12 02:36:29;;;;;;;;;20.00;18.00;;;;;18.38;60.62;101607.91;4914487;28;45491;-76
2021/09/12 02:38:55;;;;;;;;;24.50;21.50;;;;;18.38;60.58;101609.75;4918688;28;46056;-74
2021/09/12 02:41:20;;;;;;;;;24.00;21.00;;;;;18.38;60.86;101615.09;4908225;28;45364;-74
2021/09/12 02:43:46;;;;;;;;;29.50;24.50;;;;;18.38;60.73;101612.44;4914631;28;45399;-74
2021/09/12 02:46:12;;;;;;;;;26.75;23.50;;;;;18.37;60.59;101611.59;4912111;28;45512;-74
2021/09/12 02:48:37;;;;;;;;;2.00;0.00;;;;;18.38;60.83;101612.44;4916605;28;46271;-75
2021/09/12 02:51:03;;;;;;;;;21.75;18.25;;;;;18.36;60.76;101601.06;4923814;28;45548;-75
2021/09/12 02:53:28;;;;;;;;;19.25;18.75;;;;;18.35;60.63;101604.75;4908291;28;46001;-75
2021/09/12 02:55:53;;;;;;;;;18.50;18.00;;;;;18.34;60.58;101603.09;4914462;28;45623;-75
2021/09/12 02:58:19;;;;;;;;;16.75;15.50;;;;;18.33;60.10;101601.44;4921363;28;47008;-75
2021/09/12 03:00:44;;;;;;;;;14.25;14.00;;;;;18.32;60.39;101599.75;4918340;28;45455;-74
2021/09/12 03:03:09;;;;;;;;;14.50;11.50;;;;;18.31;60.41;101598.91;4912547;28;45517;-74
2021/09/12 03:05:35;;;;;;;;;21.25;15.75;;;;;18.27;60.22;101593.13;4924020;28;45465;-74
2021/09/12 03:08:00;;;;;;;;;16.00;16.00;;;;;18.25;60.01;101597.81;4912672;28;45560;-74
2021/09/12 03:10:26;;;;;;;;;14.25;12.25;;;;;18.23;60.19;101599.81;4921762;28;45487;-74
2021/09/12 03:12:51;;;;;;;;;16.00;13.25;;;;;18.19;60.01;101595.00;4916735;28;45663;-73
2021/09/12 03:15:16;;;;;;;;;14.25;13.00;;;;;18.16;60.72;101592.69;4920220;28;45509;-74
2021/09/12 03:17:43;;;;;;;;;13.75;12.25;;;;;18.12;60.46;101594.88;4938606;28;46493;-75
2021/09/12 03:20:08;;;;;;;;;15.75;11.50;;;;;18.09;60.07;101597.91;4923396;28;45533;-74
2021/09/12 03:22:34;;;;;;;;;13.00;13.00;;;;;18.07;60.07;101597.25;4914318;28;45468;-75
2021/09/12 03:24:59;;;;;;;;;12.50;12.25;;;;;18.04;60.38;101590.41;4909427;28;45540;-75
2021/09/12 03:27:24;;;;;;;;;10.75;10.75;;;;;18.02;60.69;101592.44;4913171;28;46001;-74
2021/09/12 03:29:50;;;;;;;;;14.50;13.00;;;;;18.00;60.08;101593.63;4911169;28;45641;-75
2021/09/12 03:32:16;;;;;;;;;16.00;12.00;;;;;17.95;60.44;101587.97;4926249;28;45888;-74
2021/09/12 03:34:41;;;;;;;;;16.25;13.25;;;;;17.92;60.31;101585.66;4913338;28;45675;-74
2021/09/12 03:37:07;;;;;;;;;11.50;11.50;;;;;17.89;60.78;101583.34;4919642;28;56665;-75
2021/09/12 03:39:32;;;;;;;;;11.75;11.75;;;;;17.84;60.41;101592.72;4922091;28;45695;-74
2021/09/12 03:41:57;;;;;;;;;16.50;13.25;;;;;17.80;61.08;101591.44;4923279;28;45478;-74
2021/09/12 03:44:23;;;;;;;;;14.25;13.00;;;;;17.76;61.34;101594.59;4923037;28;54147;-74
2021/09/12 03:46:48;;;;;;;;;14.00;12.00;;;;;17.72;61.52;101583.41;4913681;28;47526;-73
2021/09/12 03:49:13;;;;;;;;;14.00;13.75;;;;;17.69;61.69;101594.44;4911971;28;45553;-74
2021/09/12 03:51:39;;;;;;;;;15.25;13.25;;;;;17.64;61.15;101586.13;4916055;28;45762;-75
2021/09/12 03:54:04;;;;;;;;;14.75;11.75;;;;;17.60;61.58;101595.50;4922403;28;45475;-74
2021/09/12 03:56:29;;;;;;;;;13.75;11.25;;;;;17.54;61.20;101593.53;4917177;28;46562;-72
2021/09/12 03:58:55;;;;;;;;;14.25;13.00;;;;;17.51;61.15;101596.56;4928234;28;45516;-76
2021/09/12 04:01:20;;;;;;;;;14.00;11.50;;;;;17.47;62.21;101590.72;4922063;28;45905;-75
2021/09/12 04:03:46;;;;;;;;;17.50;14.50;;;;;17.44;61.45;101590.25;4921853;28;45455;-76
2021/09/12 04:06:11;;;;;;;;;12.75;11.00;;;;;17.39;61.76;101586.25;4910837;28;46051;-76
2021/09/12 04:08:36;;;;;;;;;11.75;11.50;;;;;17.37;62.18;101590.91;4917893;28;45860;-76
2021/09/12 04:11:02;;;;;;;;;15.25;12.75;;;;;17.34;61.52;101585.94;4912747;28;45486;-76
2021/09/12 04:13:27;;;;;;;;;17.25;15.00;;;;;17.31;61.75;101575.59;4923358;28;45511;-76
2021/09/12 04:15:53;;;;;;;;;18.00;12.25;;;;;17.28;61.58;101581.25;4927093;28;46345;-76
2021/09/12 04:18:18;;;;;;;;;15.50;14.00;;;;;17.25;61.81;101575.44;4925221;28;46061;-76
2021/09/12 04:20:43;;;;;;;;;12.75;12.75;;;;;17.22;61.99;101579.28;4924784;28;45435;-76
2021/09/12 04:23:09;;;;;;;;;9.50;7.00;;;;;17.18;61.86;101573.47;4923975;28;45785;-76
2021/09/12 04:25:34;;;;;;;;;15.25;12.75;;;;;17.15;61.75;101570.31;4913824;28;45743;-76
2021/09/12 04:27:59;;;;;;;;;13.50;12.50;;;;;17.08;61.47;101575.50;4913937;28;45496;-76
2021/09/12 04:30:25;;;;;;;;;17.00;13.00;;;;;17.02;62.10;101570.84;4927776;28;45967;-75
2021/09/12 04:32:50;;;;;;;;;15.00;13.00;;;;;16.97;62.15;101571.34;4923800;28;45954;-76
2021/09/12 04:35:16;;;;;;;;;16.75;15.25;;;;;16.91;62.36;101574.72;4920845;28;45588;-76
2021/09/12 04:37:41;;;;;;;;;15.25;14.00;;;;;16.85;63.11;101572.72;4926525;28;45476;-75
2021/09/12 04:40:07;;;;;;;;;15.25;14.25;;;;;16.79;63.00;101576.09;4924261;28;45566;-77
2021/09/12 04:42:33;;;;;;;;;15.00;13.00;;;;;16.73;63.05;101576.72;4918711;28;45573;-76
2021/09/12 04:44:58;;;;;;;;;12.75;12.25;;;;;16.67;62.78;101580.91;4914852;28;47163;-76
2021/09/12 04:47:23;;;;;;;;;14.50;13.00;;;;;16.62;62.99;101579.75;4926706;28;45499;-77
2021/09/12 04:49:49;;;;;;;;;14.75;13.25;;;;;16.54;63.58;101576.09;4926975;28;45488;-77
2021/09/12 04:52:14;;;;;;;;;16.50;13.75;;;;;16.49;63.88;101573.09;4920811;28;45470;-76
2021/09/12 04:54:40;;;;;;;;;14.00;13.75;;;;;16.43;63.91;101575.59;4921648;28;45799;-76
2021/09/12 04:57:05;;;;;;;;;15.00;13.75;;;;;16.39;64.34;101580.41;4920367;28;45593;-76
2021/09/12 04:59:33;;;;;;;;;16.25;13.75;;;;;16.34;64.22;101572.06;4928257;28;46064;-76
2021/09/12 05:01:58;;;;;;;;;15.25;13.00;;;;;16.30;64.83;101581.44;4929923;28;45673;-76
2021/09/12 05:04:24;;;;;;;;;19.50;16.00;;;;;16.26;64.74;101583.56;4923551;28;46864;-76
2021/09/12 05:06:49;;;;;;;;;15.25;14.00;;;;;16.22;64.36;101584.06;4917932;28;45560;-76
2021/09/12 05:09:14;;;;;;;;;14.00;13.50;;;;;16.17;64.87;101586.41;4919825;28;45445;-76
2021/09/12 05:11:40;;;;;;;;;16.00;13.75;;;;;16.12;65.03;101585.09;4922087;28;45445;-77
2021/09/12 05:14:06;;;;;;;;;14.50;13.25;;;;;16.08;64.66;101578.41;4925238;28;45478;-76
2021/09/12 05:16:31;;;;;;;;;14.00;13.00;;;;;16.05;65.11;101581.41;4936854;28;45507;-77
2021/09/12 05:18:56;;;;;;;;;15.50;13.00;;;;;16.01;65.01;101581.91;4925405;28;45482;-76
2021/09/12 05:21:22;;;;;;;;;15.75;13.00;;;;;15.99;65.22;101583.88;4923943;28;51758;-76
2021/09/12 05:23:47;;;;;;;;;12.50;12.00;;;;;15.97;65.83;101584.03;4924277;28;46195;-76
2021/09/12 05:26:12;;;;;;;;;11.75;10.50;;;;;15.96;66.10;101586.88;4911409;28;46009;-75
2021/09/12 05:28:38;;;;;;;;;16.75;14.25;;;;;15.92;65.53;101583.69;4927510;28;46003;-77
2021/09/12 05:31:04;;;;;;;;;16.00;13.75;;;;;15.90;66.16;101583.06;4927398;28;45546;-77
2021/09/12 05:33:30;;;;;;;;;13.50;13.00;;;;;15.87;65.84;101580.69;4923747;28;45484;-75
2021/09/12 05:35:56;;;;;;;;;13.50;12.50;;;;;15.84;65.88;101581.84;4923958;28;45863;-74
2021/09/12 05:38:22;;;;;;;;;16.25;16.00;;;;;15.83;66.03;101574.88;4912405;28;45808;-72
2021/09/12 05:40:47;;;;;;;;;16.00;14.50;;;;;15.85;66.32;101578.22;4926196;28;45728;-73
2021/09/12 05:43:13;;;;;;;;;20.00;16.00;;;;;15.87;66.46;101586.03;4923202;28;46092;-75
2021/09/12 05:45:39;;;;;;;;;15.50;14.25;;;;;15.88;66.61;101587.72;4920791;28;55982;-74
2021/09/12 05:48:04;;;;;;;;;15.75;14.00;;;;;15.88;67.10;101585.88;4913760;28;45401;-73
2021/09/12 05:50:30;;;;;;;;;14.00;13.50;;;;;15.93;66.83;101584.56;4918446;28;45691;-74
2021/09/12 05:52:55;;;;;;;;;14.25;11.25;;;;;15.98;66.64;101587.56;4925665;28;45817;-75
2021/09/12 05:55:21;;;;;;;;;20.75;16.00;;;;;16.04;66.90;101584.22;4921779;28;45418;-75
2021/09/12 05:57:46;;;;;;;;;18.25;14.50;;;;;16.10;67.19;101589.75;4917627;28;45726;-75
2021/09/12 06:00:12;;;;;;;;;19.00;15.00;;;;;16.17;67.47;101587.25;4920237;28;45550;-76
2021/09/12 06:02:38;;;;;;;;;16.75;15.25;;;;;16.25;67.09;101586.44;4927216;28;45958;-76
2021/09/12 06:05:04;;;;;;;;;15.00;14.50;;;;;16.33;67.11;101586.44;4919223;28;45719;-77
2021/09/12 06:07:30;;;;;;;;;17.00;17.00;;;;;16.40;66.17;101592.75;4924346;28;45743;-76
2021/09/12 06:09:56;;;;;;;;;18.00;15.00;;;;;16.51;66.12;101597.75;4924817;28;45677;-70
2021/09/12 06:12:22;;;;;;;;;21.50;18.50;;;;;16.60;66.11;101598.59;4923234;28;47134;-71
2021/09/12 06:14:48;;;;;;;;;20.75;17.50;;;;;16.70;65.77;101598.41;4922931;28;46045;-71
2021/09/12 06:17:13;;;;;;;;;20.00;17.50;;;;;16.81;65.51;101599.94;4930590;28;45834;-71
2021/09/12 06:19:38;;;;;;;;;21.50;19.00;;;;;16.92;64.97;101604.94;4936485;28;45806;-71
2021/09/12 06:22:05;;;;;;;;;20.00;18.75;;;;;17.02;64.83;101607.41;4918825;28;45871;-71
2021/09/12 06:24:30;;;;;;;;;22.50;22.00;;;;;17.12;64.34;101602.72;4920624;28;46069;-70
2021/09/12 06:26:56;;;;;;;;;21.75;19.00;;;;;17.22;63.49;101603.34;4905522;28;45608;-71
2021/09/12 06:29:21;;;;;;;;;21.25;17.75;;;;;17.33;63.24;101605.66;4925981;28;45498;-71
2021/09/12 06:31:48;;;;;;;;;20.00;17.75;;;;;17.42;63.08;101601.91;4930290;28;47359;-71
2021/09/12 06:34:14;;;;;;;;;20.75;17.75;;;;;17.52;62.59;101601.72;4935186;28;45927;-71
2021/09/12 06:36:39;;;;;;;;;15.00;15.00;;;;;17.63;62.15;101611.22;4933639;28;45605;-70
2021/09/12 06:39:05;;;;;;;;;18.75;17.50;;;;;17.73;62.02;101605.63;4921496;28;45575;-70
2021/09/12 06:41:30;;;;;;;;;16.00;16.00;;;;;17.91;61.84;101611.56;4925306;28;46123;-69
2021/09/12 06:43:55;;;;;;;;;17.00;15.50;;;;;18.25;61.53;101600.47;4915077;28;46031;-70
2021/09/12 06:46:21;;;;;;;;;17.25;14.00;;;;;18.65;61.07;101606.50;4921724;28;45452;-71
2021/09/12 06:48:46;;;;;;;;;19.00;17.25;;;;;19.25;59.32;101603.91;4918269;28;45775;-69
2021/09/12 06:51:13;;;;;;;;;16.50;16.00;;;;;19.27;58.13;101608.06;4912411;28;46264;-70
2021/09/12 06:53:38;;;;;;;;;20.25;15.75;;;;;19.16;58.60;101605.81;4914540;28;45859;-69
2021/09/12 06:56:04;;;;;;;;;17.00;17.00;;;;;19.27;57.99;101609.91;4927052;28;45677;-69
2021/09/12 06:58:30;;;;;;;;;21.25;16.00;;;;;19.42;58.13;101607.22;4928065;28;46841;-70
2021/09/12 07:00:57;;;;;;;;;18.50;17.50;;;;;19.58;58.22;101601.63;4922287;28;45908;-70
2021/09/12 07:03:23;;;;;;;;;22.00;18.75;;;;;19.91;57.30;101602.06;4915951;28;54292;-69
2021/09/12 07:05:48;;;;;;;;;18.75;17.25;;;;;20.13;57.00;101592.19;4911772;28;45565;-70
2021/09/12 07:08:13;;;;;;;;;17.25;17.00;;;;;20.11;55.82;101596.91;4923714;28;45543;-70
2021/09/12 07:10:39;;;;;;;;;18.50;18.50;;;;;19.99;56.28;101598.41;4926013;28;46024;-70
2021/09/12 07:13:04;;;;;;;;;21.00;19.00;;;;;19.97;56.42;101601.28;4916662;28;45690;-70
2021/09/12 07:15:30;;;;;;;;;16.25;16.25;;;;;19.94;56.41;101600.84;4927388;28;45435;-69
2021/09/12 07:17:55;;;;;;;;;19.00;17.75;;;;;19.86;56.32;101596.44;4926894;28;45619;-69
2021/09/12 07:20:20;;;;;;;;;19.00;18.50;;;;;19.86;56.52;101593.75;4914177;28;46025;-73
2021/09/12 07:22:47;;;;;;;;;17.50;15.50;;;;;20.04;56.33;101592.50;4925817;28;45503;-69
2021/09/12 07:25:12;;;;;;;;;17.25;16.75;;;;;20.43;55.78;101599.25;4916907;28;45613;-69
2021/09/12 07:27:38;;;;;;;;;18.50;15.75;;;;;20.74;55.20;101605.09;4915264;28;45478;-69
2021/09/12 07:30:04;;;;;;;;;14.25;13.25;;;;;20.91;53.77;101599.44;4926173;28;45748;-69
2021/09/12 07:32:29;;;;;;;;;11.25;9.00;;;;;21.24;54.09;101608.53;4926159;28;45951;-67
2021/09/12 07:34:55;;;;;;;;;9.00;7.75;;;;;22.78;50.23;101604.34;4927071;28;45538;-72
2021/09/12 07:37:20;;;;;;;;;7.00;7.00;;;;;23.92;49.90;101604.81;4921355;28;45513;-73
2021/09/12 07:39:45;;;;;;;;;6.75;6.75;;;;;25.42;45.63;101599.34;4917354;28;46361;-72
2021/09/12 07:42:11;;;;;;;;;9.25;6.75;;;;;27.84;41.42;101595.81;4929523;28;45579;-68
2021/09/12 07:44:36;;;;;;;;;10.00;8.25;;;;;30.52;39.32;101594.38;4919607;28;45641;-74
2021/09/12 07:47:01;;;;;;;;;6.50;6.00;;;;;33.13;35.96;101597.53;4924331;28;45489;-73
2021/09/12 07:49:27;;;;;;;;;8.75;6.75;;;;;35.27;33.31;101602.34;4920102;28;45794;-70
2021/09/12 07:51:52;;;;;;;;;8.25;7.00;;;;;37.42;30.74;101597.75;4921435;28;45503;-71
2021/09/12 07:54:17;;;;;;;;;8.25;8.00;;;;;39.11;28.28;101607.22;4921279;28;45828;-73
2021/09/12 07:56:43;;;;;;;;;6.00;5.25;;;;;39.68;26.31;101609.06;4919544;28;49982;-72
2021/09/12 07:59:08;;;;;;;;;4.00;4.00;;;;;39.72;23.23;101607.28;4924127;28;46255;-73
2021/09/12 08:01:34;;;;;;;;;7.00;6.50;;;;;40.36;23.23;101615.66;4922361;28;45508;-73
2021/09/12 08:03:59;;;;;;;;;7.00;6.75;;;;;41.09;21.00;101616.63;4916802;28;45561;-73
2021/09/12 08:06:25;;;;;;;;;5.00;5.00;;;;;41.12;21.00;101608.47;4917761;28;45643;-73
2021/09/12 08:08:50;;;;;;;;;7.75;4.75;;;;;41.85;22.77;101612.81;4958223;28;46086;-73
2021/09/12 08:11:16;;;;;;;;;6.00;5.00;;;;;43.15;19.30;101614.00;4922720;28;45795;-73
2021/09/12 08:13:42;;;;;;;;;7.00;5.00;;;;;43.74;21.00;101612.56;4917646;28;45521;-73
2021/09/12 08:16:07;;;;;;;;;5.00;5.00;;;;;43.97;19.23;101620.31;4946589;28;45867;-73
2021/09/12 08:18:33;;;;;;;;;6.50;6.50;;;;;43.73;20.04;101616.50;4928346;28;46955;-74
2021/09/12 08:20:58;;;;;;;;;6.00;5.00;;;;;43.32;20.70;101618.47;4922977;28;45438;-73
2021/09/12 08:23:24;;;;;;;;;4.00;4.00;;;;;43.66;19.99;101623.84;4921767;28;45436;-74
2021/09/12 08:25:49;;;;;;;;;5.25;5.00;;;;;44.13;18.68;101618.41;4919381;28;45434;-73
2021/09/12 08:28:15;;;;;;;;;4.00;4.00;;;;;44.23;19.05;101625.41;4930410;28;45953;-73
2021/09/12 08:30:40;;;;;;;;;6.50;4.25;;;;;44.27;19.05;101626.31;4942796;28;45580;-73
2021/09/12 08:33:12;;;;;;;;;6.00;4.25;;;;;44.53;18.50;101634.16;4925353;28;45759;-73
2021/09/12 08:35:37;;;;;;;;;4.75;4.00;;;;;44.21;18.57;101630.53;4924279;28;45569;-73
2021/09/12 08:38:03;;;;;;;;;3.00;3.00;;;;;43.74;18.43;101620.91;4926941;28;46480;-73
2021/09/12 08:40:28;;;;;;;;;4.25;4.25;;;;;43.27;18.25;101615.16;4921892;28;45526;-73
2021/09/12 08:42:55;;;;;;;;;3.00;2.75;;;;;42.82;18.12;101621.69;4915505;28;45460;-73
2021/09/12 08:45:24;;;;;;;;;3.00;2.75;;;;;41.99;19.08;101620.84;4912121;28;45679;-76
2021/09/12 08:47:50;;;;;;;;;3.25;3.25;;;;;41.75;19.45;101618.78;4921278;28;46305;-70
2021/09/12 08:50:15;;;;;;;;;4.50;3.00;;;;;41.70;19.37;101616.22;4909147;28;46423;-68
2021/09/12 08:52:40;;;;;;;;;4.75;3.75;;;;;41.63;19.54;101617.56;4921059;28;45939;-69
2021/09/12 08:55:07;;;;;;;;;2.25;2.25;;;;;41.44;18.89;101608.88;4917122;28;45703;-69
2021/09/12 08:57:32;;;;;;;;;3.75;2.25;;;;;41.37;19.93;101614.16;4918942;28;46069;-69
2021/09/12 08:59:58;;;;;;;;;4.00;2.25;;;;;41.31;20.27;101609.97;4920109;28;45523;-68
2021/09/12 09:02:25;;;;;;;;;4.75;4.75;;;;;41.46;19.20;101601.84;4920567;28;45817;-69
2021/09/12 09:05:00;;;;;;;;;4.00;4.00;;;;;41.53;17.93;101595.81;4922591;28;45588;-71
2021/09/12 09:07:28;;;;;;;;;5.00;4.25;;;;;40.82;19.57;101605.69;4916631;28;45570;-69
2021/09/12 09:09:53;;;;;;;;;5.75;4.25;;;;;40.55;20.39;101601.41;4920053;28;45693;-70
2021/09/12 09:12:23;;;;;;;;;4.25;4.00;;;;;40.59;18.82;101599.59;4919271;28;45756;-70
2021/09/12 09:15:13;;;;;;;;;6.00;3.75;;;;;40.02;20.05;101604.66;4915580;28;45542;-74
2021/09/12 09:17:47;;;;;;;;;5.25;4.75;;;;;39.57;20.20;101600.31;4915183;28;46398;-81
2021/09/12 09:20:18;;;;;;;;;5.75;5.25;;;;;39.56;18.94;101602.22;4920102;28;46033;-73
2021/09/12 09:22:47;;;;;;;;;6.00;4.00;;;;;39.19;20.02;101600.88;4923662;28;45531;-75
2021/09/12 09:25:22;;;;;;;;;4.25;4.25;;;;;39.11;21.01;101604.44;4921022;28;45588;-75
2021/09/12 09:27:56;;;;;;;;;3.25;2.25;;;;;39.56;20.54;101604.19;4918177;28;46217;-73
2021/09/12 09:30:22;;;;;;;;;3.25;3.25;;;;;40.28;20.44;101613.72;4916717;28;45454;-76
2021/09/12 09:32:47;;;;;;;;;4.75;3.50;;;;;40.21;19.24;101610.66;4921048;28;45500;-76
2021/09/12 09:35:23;;;;;;;;;4.50;4.00;;;;;39.58;20.19;101603.88;4927691;28;45692;-77
2021/09/12 09:37:49;;;;;;;;;5.00;3.00;;;;;39.23;20.58;101606.59;4928258;28;45663;-78
2021/09/12 09:40:15;;;;;;;;;7.00;3.00;;;;;38.96;19.67;101608.50;4914538;28;45740;-79
2021/09/12 09:42:45;;;;;;;;;3.00;3.00;;;;;38.66;19.80;101610.97;4916836;28;45552;-78
2021/09/12 09:45:17;;;;;;;;;3.00;3.00;;;;;37.97;19.60;101610.53;4923249;28;45557;-76
2021/09/12 09:47:48;;;;;;;;;3.00;3.00;;;;;37.43;21.28;101600.19;4922231;28;46082;-78
2021/09/12 09:50:13;;;;;;;;;4.00;4.00;;;;;37.83;20.84;101607.84;4925989;28;45523;-77
2021/09/12 09:52:46;;;;;;;;;3.25;3.00;;;;;37.72;21.14;101592.69;4914556;28;45558;-77
2021/09/12 09:55:16;;;;;;;;;0.00;0.00;;;;;37.60;21.79;101596.81;4912849;28;45478;-77
2021/09/12 09:57:47;;;;;;;;;5.00;3.00;;;;;37.21;21.61;101594.63;4913578;28;45913;-77
2021/09/12 10:00:14;;;;;;;;;3.00;2.75;;;;;36.75;22.14;101587.34;4913258;28;46069;-77
2021/09/12 10:02:40;;;;;;;;;2.00;2.00;;;;;36.61;22.60;101595.56;4926909;28;45580;-77
2021/09/12 10:05:09;;;;;;;;;2.00;2.00;;;;;36.58;22.97;101586.00;4924779;28;45616;-77
2021/09/12 10:07:36;;;;;;;;;3.00;2.75;;;;;36.69;23.58;101583.84;4921596;28;47541;-77
2021/09/12 10:10:10;;;;;;;;;3.50;2.00;;;;;36.92;23.11;101582.00;4919070;28;45440;-77
2021/09/12 10:12:40;;;;;;;;;1.75;1.00;;;;;37.07;22.84;101586.41;4911495;28;51512;-77
2021/09/12 10:15:12;;;;;;;;;2.00;2.00;;;;;36.69;22.95;101588.53;4923542;28;45519;-74
2021/09/12 10:17:43;;;;;;;;;2.00;2.00;;;;;36.69;23.87;101578.34;4912124;28;46843;-77
2021/09/12 10:20:29;;;;;;;;;2.00;2.00;;;;;36.82;22.96;101579.44;4923484;28;45421;-68
2021/09/12 10:23:01;;;;;;;;;2.25;1.25;;;;;36.26;23.09;101581.34;4931046;28;45547;-76
2021/09/12 10:25:49;;;;;;;;;2.50;2.50;;;;;35.75;21.79;101580.22;4910787;28;45727;-79
2021/09/12 10:28:31;;;;;;;;;4.00;3.00;;;;;35.19;23.44;101586.53;4922164;28;46211;-80
2021/09/12 10:30:58;;;;;;;;;5.25;4.00;;;;;34.74;22.39;101574.16;4927565;28;45556;-81
2021/09/12 10:33:26;;;;;;;;;2.50;2.50;;;;;34.03;23.72;101571.78;4923571;28;45719;-81
2021/09/12 10:35:51;;;;;;;;;2.25;2.25;;;;;33.73;23.38;101567.38;4918167;28;45529;-78
2021/09/12 10:38:37;;;;;;;;;2.50;2.50;;;;;33.32;24.46;101564.88;4922983;28;46114;-79
2021/09/12 10:41:02;;;;;;;;;2.00;2.00;;;;;33.18;25.99;101577.53;4927242;28;45571;-75
2021/09/12 10:43:27;;;;;;;;;3.00;2.00;;;;;33.67;25.65;101571.25;4923714;28;45424;-76
2021/09/12 10:45:59;;;;;;;;;0.25;0.25;;;;;34.17;24.08;101565.66;4922997;28;45695;-77
2021/09/12 10:48:24;;;;;;;;;2.00;2.00;;;;;34.31;24.78;101563.06;4920280;28;46307;-73
2021/09/12 10:50:51;;;;;;;;;4.00;4.00;;;;;34.72;24.58;101562.66;4925746;28;45682;-77
2021/09/12 10:53:18;;;;;;;;;5.00;3.50;;;;;34.76;23.22;101570.00;4935375;28;45518;-75
2021/09/12 10:56:03;;;;;;;;;3.75;2.75;;;;;34.80;24.79;101557.34;4925516;28;45478;-68
2021/09/12 10:58:38;;;;;;;;;2.50;2.50;;;;;34.82;24.62;101557.06;4922148;28;45987;-76
2021/09/12 11:01:06;;;;;;;;;3.50;3.50;;;;;35.19;24.71;101564.56;4914751;28;45599;-76
2021/09/12 11:03:33;;;;;;;;;2.00;2.00;;;;;35.61;25.05;101559.28;4924406;28;45625;-76
2021/09/12 11:06:00;;;;;;;;;3.50;3.00;;;;;36.08;23.50;101554.66;4916537;28;45892;-68
2021/09/12 11:08:39;;;;;;;;;2.50;2.50;;;;;36.48;23.63;101552.31;4919593;28;51211;-67
2021/09/12 11:11:08;;;;;;;;;4.00;3.00;;;;;36.61;23.02;101547.97;4923415;28;45473;-68